Time;durP1;ratioP1;P1;durP2;ratioP2;P2;SDS_P1;SDS_P2;PMS_P1;PMS_P2;Temp;Humidity;BMP_temperature;BMP_pressure;BME280_temperature;BME280_humidity;BME280_pressure;Samples;Min_cycle;Max_cycle;Signal;HPM_P1;HPM_P2
2022/07/14 00:02:16;;;;;;;9.70;1.30;;;26.10;51.80;;;;;;5093340;28;20556;-66
2022/07/14 00:05:21;;;;;;;5.32;1.40;;;26.00;52.20;;;;;;5093358;28;20043;-65
2022/07/14 00:08:25;;;;;;;5.40;1.23;;;26.00;51.60;;;;;;5093535;28;20039;-66
2022/07/14 00:11:29;;;;;;;3.05;1.20;;;26.00;52.50;;;;;;5093455;28;20039;-66
2022/07/14 00:14:33;;;;;;;4.78;1.55;;;25.90;53.60;;;;;;5093420;28;20043;-66
2022/07/14 00:17:36;;;;;;;6.05;1.55;;;25.90;53.10;;;;;;5093538;28;20063;-66
2022/07/14 00:20:40;;;;;;;9.45;1.75;;;25.80;53.20;;;;;;5093546;28;20043;-66
2022/07/14 00:23:46;;;;;;;5.65;1.40;;;25.80;54.30;;;;;;5093652;28;20058;-66
2022/07/14 00:26:53;;;;;;;4.68;1.23;;;25.60;54.20;;;;;;5092306;28;20047;-66
2022/07/14 00:29:58;;;;;;;3.25;1.30;;;25.40;54.90;;;;;;5093096;28;20039;-66
2022/07/14 00:33:02;;;;;;;11.07;2.05;;;25.40;53.50;;;;;;5093347;28;20384;-66
2022/07/14 00:36:08;;;;;;;5.20;1.25;;;25.20;54.20;;;;;;5093073;28;20043;-67
2022/07/14 00:39:12;;;;;;;6.25;1.67;;;25.20;54.10;;;;;;5092038;28;20059;-66
2022/07/14 00:42:36;;;;;;;6.95;1.45;;;24.90;54.30;;;;;;5092705;28;20039;-66
2022/07/14 00:45:40;;;;;;;3.90;1.60;;;24.80;54.60;;;;;;5091962;28;20047;-66
2022/07/14 00:48:44;;;;;;;8.55;1.67;;;24.70;55.20;;;;;;5091920;28;20035;-66
2022/07/14 00:51:48;;;;;;;5.28;1.80;;;24.70;54.70;;;;;;5091833;28;20126;-66
2022/07/14 00:54:53;;;;;;;9.00;2.58;;;24.60;54.50;;;;;;5092421;28;20047;-66
2022/07/14 00:57:57;;;;;;;7.70;2.80;;;24.50;54.70;;;;;;5092559;28;20047;-66
2022/07/14 01:01:02;;;;;;;8.02;3.13;;;24.50;55.00;;;;;;5090769;28;20047;-66
2022/07/14 01:04:06;;;;;;;13.18;2.90;;;24.50;55.00;;;;;;5092375;28;20051;-66
2022/07/14 01:07:12;;;;;;;10.20;3.22;;;24.50;55.20;;;;;;5091918;28;20047;-66
2022/07/14 01:10:16;;;;;;;13.43;3.65;;;24.40;55.30;;;;;;5092482;28;20043;-66
2022/07/14 01:13:20;;;;;;;6.82;3.45;;;24.30;55.50;;;;;;5091525;28;20047;-66
2022/07/14 01:16:24;;;;;;;10.30;4.82;;;24.40;55.50;;;;;;5079747;28;20051;-66
2022/07/14 01:19:28;;;;;;;12.55;4.97;;;24.30;55.60;;;;;;5091622;28;20400;-66
2022/07/14 01:22:32;;;;;;;14.23;5.10;;;24.10;55.90;;;;;;5091219;28;20518;-66
2022/07/14 01:25:36;;;;;;;11.88;5.18;;;24.00;56.30;;;;;;5079408;28;20503;-66
2022/07/14 01:28:40;;;;;;;14.10;5.10;;;24.00;56.50;;;;;;5091905;28;20194;-66
2022/07/14 01:31:44;;;;;;;10.88;4.82;;;24.00;57.00;;;;;;5091931;28;20392;-66
2022/07/14 01:34:49;;;;;;;12.05;5.30;;;23.90;57.30;;;;;;5091210;28;20054;-66
2022/07/14 01:37:56;;;;;;;11.52;4.40;;;23.90;57.60;;;;;;5090874;28;20047;-66
2022/07/14 01:41:00;;;;;;;8.82;4.15;;;23.90;57.60;;;;;;5090689;28;20047;-66
2022/07/14 01:44:04;;;;;;;14.05;4.03;;;23.90;57.70;;;;;;5091140;28;20059;-66
2022/07/14 01:47:09;;;;;;;11.38;3.63;;;23.70;57.90;;;;;;5091869;28;20035;-66
2022/07/14 01:50:13;;;;;;;12.65;3.67;;;23.70;57.70;;;;;;5091988;28;20055;-66
2022/07/14 01:53:20;;;;;;;21.00;3.95;;;23.80;57.70;;;;;;5090629;28;20039;-66
2022/07/14 01:56:24;;;;;;;5.93;3.25;;;23.90;57.90;;;;;;5090903;28;20518;-66
2022/07/14 01:59:30;;;;;;;9.88;3.47;;;23.80;57.90;;;;;;5090485;28;20364;-66
2022/07/14 02:02:35;;;;;;;8.27;3.17;;;23.90;57.70;;;;;;5090417;28;20043;-66
2022/07/14 02:05:45;;;;;;;6.60;2.60;;;23.80;58.20;;;;;;5090328;28;20059;-66
2022/07/14 02:08:50;;;;;;;7.47;3.10;;;23.80;57.40;;;;;;5090561;28;20039;-66
2022/07/14 02:12:11;;;;;;;4.65;2.80;;;23.70;58.00;;;;;;5090506;28;20050;-65
2022/07/14 02:15:15;;;;;;;5.63;2.67;;;23.80;57.70;;;;;;5090708;28;20063;-65
2022/07/14 02:18:20;;;;;;;6.60;2.80;;;23.70;57.80;;;;;;5090656;28;20388;-66
2022/07/14 02:21:24;;;;;;;10.55;2.90;;;23.60;57.20;;;;;;5090369;28;20039;-66
2022/07/14 02:24:28;;;;;;;4.80;2.05;;;23.50;57.70;;;;;;5091276;28;20396;-66
2022/07/14 02:27:32;;;;;;;6.18;2.50;;;23.50;57.40;;;;;;5090120;28;20038;-66
2022/07/14 02:30:36;;;;;;;4.63;2.05;;;23.40;56.70;;;;;;5091294;28;20047;-66
2022/07/14 02:33:40;;;;;;;9.35;2.20;;;23.40;56.90;;;;;;5091018;28;20047;-66
2022/07/14 02:36:44;;;;;;;5.35;2.50;;;23.10;57.30;;;;;;5090261;28;20035;-65
2022/07/14 02:39:50;;;;;;;13.35;2.33;;;23.10;58.00;;;;;;5089978;28;20051;-65
2022/07/14 02:42:53;;;;;;;6.30;2.30;;;23.10;57.90;;;;;;5090988;28;20055;-65
2022/07/14 02:45:59;;;;;;;4.28;2.28;;;23.20;57.80;;;;;;5089919;28;20043;-65
2022/07/14 02:49:04;;;;;;;12.75;2.38;;;23.30;57.60;;;;;;5090157;28;20507;-66
2022/07/14 02:52:10;;;;;;;7.65;2.55;;;23.30;58.20;;;;;;5089933;28;20609;-66
2022/07/14 02:55:18;;;;;;;5.38;1.90;;;23.20;59.20;;;;;;5089939;28;20043;-66
2022/07/14 02:58:24;;;;;;;3.83;1.83;;;23.20;57.70;;;;;;5090133;28;20043;-66
2022/07/14 03:01:29;;;;;;;11.23;2.40;;;23.10;57.80;;;;;;5090206;28;20498;-66
2022/07/14 03:04:33;;;;;;;8.85;2.55;;;23.00;58.50;;;;;;5090039;28;20063;-66
2022/07/14 03:07:38;;;;;;;5.40;2.60;;;22.90;59.00;;;;;;5089947;28;20047;-66
2022/07/14 03:10:44;;;;;;;10.88;2.70;;;23.00;58.60;;;;;;5090058;28;20047;-66
2022/07/14 03:13:48;;;;;;;6.45;2.70;;;23.10;58.30;;;;;;5090383;28;20039;-66
2022/07/14 03:16:55;;;;;;;7.05;2.85;;;23.10;58.80;;;;;;5089827;28;20403;-66
2022/07/14 03:20:00;;;;;;;6.32;2.92;;;23.00;59.00;;;;;;5089897;28;20048;-66
2022/07/14 03:23:05;;;;;;;3.50;2.30;;;23.00;58.70;;;;;;5090007;28;20066;-66
2022/07/14 03:26:09;;;;;;;8.35;2.80;;;23.00;58.10;;;;;;5093671;28;20043;-66
2022/07/14 03:29:14;;;;;;;11.18;2.70;;;23.00;58.20;;;;;;5093999;28;20039;-66
2022/07/14 03:32:18;;;;;;;8.02;2.60;;;22.90;59.00;;;;;;5094361;28;20047;-66
2022/07/14 03:35:23;;;;;;;6.68;3.00;;;22.70;59.30;;;;;;5093655;28;20063;-66
2022/07/14 03:38:28;;;;;;;5.05;2.70;;;22.60;59.20;;;;;;5093503;28;20047;-65
2022/07/14 03:41:34;;;;;;;9.48;2.92;;;22.40;59.80;;;;;;5093573;28;20043;-66
2022/07/14 03:44:38;;;;;;;8.88;3.15;;;22.40;59.80;;;;;;5093262;28;20047;-66
2022/07/14 03:47:42;;;;;;;9.23;3.22;;;22.30;58.60;;;;;;5081620;28;20046;-67
2022/07/14 03:50:47;;;;;;;11.20;4.30;;;22.40;59.00;;;;;;5093058;28;20063;-66
2022/07/14 03:53:51;;;;;;;10.70;3.28;;;22.40;60.10;;;;;;5093400;28;20448;-66
2022/07/14 03:56:56;;;;;;;8.40;4.07;;;22.50;60.20;;;;;;5092780;28;20051;-65
2022/07/14 04:00:01;;;;;;;8.82;3.20;;;22.50;60.00;;;;;;5093092;28;20043;-66
2022/07/14 04:03:05;;;;;;;14.05;4.03;;;22.60;60.50;;;;;;5092838;28;20050;-66
2022/07/14 04:06:09;;;;;;;24.35;4.57;;;22.60;60.60;;;;;;5092810;28;20047;-66
2022/07/14 04:09:13;;;;;;;11.73;4.70;;;22.50;61.30;;;;;;5092687;28;20043;-67
2022/07/14 04:12:25;;;;;;;17.02;4.13;;;22.30;60.70;;;;;;5092591;28;20051;-66
2022/07/14 04:15:30;;;;;;;39.15;5.28;;;22.20;60.40;;;;;;5092870;28;20043;-65
2022/07/14 04:18:35;;;;;;;36.20;5.15;;;22.30;60.80;;;;;;5092530;28;20043;-67
2022/07/14 04:21:40;;;;;;;14.88;3.60;;;22.50;61.00;;;;;;5092430;28;20039;-67
2022/07/14 04:24:44;;;;;;;36.38;4.65;;;22.60;60.70;;;;;;5092371;28;20052;-66
2022/07/14 04:27:48;;;;;;;30.05;4.47;;;22.80;60.90;;;;;;5092224;28;20039;-67
2022/07/14 04:30:53;;;;;;;22.30;4.18;;;22.80;60.80;;;;;;5080733;28;20503;-65
2022/07/14 04:33:57;;;;;;;12.93;3.90;;;22.80;60.70;;;;;;5092498;28;20047;-66
2022/07/14 04:37:03;;;;;;;17.48;6.07;;;22.80;61.60;;;;;;5091646;28;20400;-66
2022/07/14 04:40:07;;;;;;;13.95;4.10;;;22.90;60.00;;;;;;5092901;28;20054;-66
2022/07/14 04:43:12;;;;;;;52.95;9.13;;;22.90;60.00;;;;;;5091959;28;20054;-66
2022/07/14 04:46:16;;;;;;;22.25;5.53;;;23.20;59.80;;;;;;5091902;28;20510;-67
2022/07/14 04:52:49;;;;;;;19.00;6.00;;;24.10;58.40;;;;;;5093182;28;20062;-67
2022/07/14 04:56:14;;;;;;;26.83;6.38;;;24.80;57.20;;;;;;5091982;28;20039;-67
2022/07/14 04:59:27;;;;;;;30.48;4.70;;;25.60;56.30;;;;;;5091778;28;20055;-67
2022/07/14 05:02:31;;;;;;;25.35;6.07;;;26.40;55.00;;;;;;5091726;28;20401;-67
2022/07/14 05:05:35;;;;;;;20.50;5.78;;;27.00;54.40;;;;;;5091861;28;20046;-67
2022/07/14 05:08:39;;;;;;;22.30;5.85;;;27.00;54.60;;;;;;5091644;28;20639;-66
2022/07/14 05:11:46;;;;;;;17.80;5.13;;;27.00;55.20;;;;;;5091685;28;20046;-66
2022/07/14 05:14:50;;;;;;;37.35;8.57;;;27.00;53.20;;;;;;5091830;28;20636;-67
2022/07/14 05:17:56;;;;;;;23.98;4.80;;;27.20;54.30;;;;;;5091778;28;20075;-67
2022/07/14 05:21:01;;;;;;;24.75;5.13;;;27.20;54.40;;;;;;5091287;28;20038;-65
2022/07/14 05:24:06;;;;;;;35.60;8.07;;;27.30;54.10;;;;;;5091456;28;20051;-65
2022/07/14 05:27:13;;;;;;;26.65;5.28;;;27.40;54.90;;;;;;5091267;28;20594;-66
2022/07/14 05:30:17;;;;;;;15.93;4.20;;;27.40;53.70;;;;;;5091166;28;20043;-66
2022/07/14 05:33:22;;;;;;;14.10;4.95;;;27.60;52.50;;;;;;5091256;28;20043;-67
2022/07/14 05:36:29;;;;;;;16.48;3.92;;;27.80;51.80;;;;;;5091355;28;20075;-66
2022/07/14 05:39:34;;;;;;;19.40;4.03;;;28.00;50.90;;;;;;5091269;28;20050;-66
2022/07/14 05:42:37;;;;;;;24.30;4.38;;;28.10;50.30;;;;;;5091235;28;20055;-66
2022/07/14 05:45:42;;;;;;;15.98;4.20;;;28.20;50.50;;;;;;5091199;28;20067;-67
2022/07/14 05:48:46;;;;;;;18.58;3.83;;;28.30;51.00;;;;;;5091076;28;20035;-67
2022/07/14 05:51:50;;;;;;;21.45;4.57;;;28.40;51.10;;;;;;5078897;28;20051;-65
2022/07/14 05:54:57;;;;;;;40.75;6.43;;;28.30;51.20;;;;;;5090723;28;20507;-65
2022/07/14 05:58:02;;;;;;;13.13;4.30;;;28.40;50.70;;;;;;5090582;28;20387;-66
2022/07/14 06:01:07;;;;;;;14.23;4.47;;;28.20;49.90;;;;;;5090391;28;20043;-67
2022/07/14 06:04:12;;;;;;;12.80;5.32;;;27.90;48.10;;;;;;5090423;28;20054;-69
2022/07/14 06:07:18;;;;;;;17.90;5.40;;;27.70;48.10;;;;;;5089816;28;20043;-70
2022/07/14 06:10:28;;;;;;;12.30;4.88;;;27.70;48.30;;;;;;5090175;28;20110;-69
2022/07/14 06:13:34;;;;;;;14.43;4.68;;;27.50;48.30;;;;;;5090275;28;20047;-70
2022/07/14 06:16:40;;;;;;;12.70;4.88;;;27.50;49.10;;;;;;5090317;28;20122;-68
2022/07/14 06:19:44;;;;;;;22.42;5.18;;;27.90;49.20;;;;;;5090678;28;20364;-68
2022/07/14 06:22:49;;;;;;;15.38;4.68;;;28.20;48.10;;;;;;5091453;28;20042;-70
2022/07/14 06:25:53;;;;;;;14.60;5.20;;;28.70;48.20;;;;;;5090787;28;20051;-68
2022/07/14 06:29:03;;;;;;;22.73;5.53;;;29.00;47.80;;;;;;5078741;28;20494;-69
2022/07/14 06:32:08;;;;;;;22.45;5.72;;;29.10;48.90;;;;;;5090343;28;20115;-69
2022/07/14 06:35:12;;;;;;;33.97;5.88;;;29.40;47.60;;;;;;5090684;28;20043;-70
2022/07/14 06:38:17;;;;;;;24.35;6.47;;;29.60;47.70;;;;;;5090141;28;20055;-70
2022/07/14 06:41:22;;;;;;;32.35;6.72;;;29.70;48.10;;;;;;5090537;28;20051;-68
2022/07/14 06:44:28;;;;;;;33.17;7.35;;;30.00;47.10;;;;;;5090024;28;20059;-68
2022/07/14 06:47:33;;;;;;;38.40;8.82;;;30.20;47.10;;;;;;5090974;28;20051;-68
2022/07/14 06:50:37;;;;;;;103.80;15.60;;;30.30;46.70;;;;;;5090540;28;20526;-68
2022/07/14 06:53:41;;;;;;;38.00;10.73;;;30.40;47.10;;;;;;5090935;28;20039;-69
2022/07/14 06:56:45;;;;;;;42.30;9.55;;;30.50;46.70;;;;;;5091075;28;20047;-68
2022/07/14 06:59:49;;;;;;;50.75;11.60;;;30.80;46.30;;;;;;5094149;28;20102;-67
2022/07/14 07:02:54;;;;;;;37.20;9.88;;;31.00;45.60;;;;;;5095088;28;20156;-69
2022/07/14 07:09:20;;;;;;;24.33;7.28;;;31.40;45.30;;;;;;5093786;28;20047;-69
2022/07/14 07:12:25;;;;;;;26.67;6.63;;;31.50;44.90;;;;;;5094488;28;20047;-68
2022/07/14 07:15:29;;;;;;;26.23;6.10;;;31.50;45.60;;;;;;5094694;28;20043;-67
2022/07/14 07:18:34;;;;;;;26.25;5.28;;;31.60;45.20;;;;;;5094748;28;20043;-69
2022/07/14 07:21:38;;;;;;;27.40;5.22;;;31.70;45.90;;;;;;5094283;28;20047;-68
2022/07/14 07:24:41;;;;;;;19.85;5.25;;;31.60;46.40;;;;;;5094350;28;20582;-68
2022/07/14 07:27:45;;;;;;;14.23;4.50;;;31.50;46.50;;;;;;5094398;28;20051;-68
2022/07/14 07:30:50;;;;;;;25.55;5.28;;;31.60;46.30;;;;;;5094221;28;20043;-69
2022/07/14 07:33:54;;;;;;;20.70;5.00;;;31.80;45.90;;;;;;5093860;28;20039;-69
2022/07/14 07:36:58;;;;;;;21.50;5.45;;;31.90;45.90;;;;;;5094226;28;20051;-68
2022/07/14 07:40:03;;;;;;;26.80;5.68;;;31.90;45.80;;;;;;5093584;28;20039;-68
2022/07/14 07:43:07;;;;;;;40.10;6.30;;;31.90;45.80;;;;;;5093898;28;20388;-69
2022/07/14 07:46:11;;;;;;;25.73;5.43;;;32.10;45.90;;;;;;5093878;28;20105;-68
2022/07/14 07:49:14;;;;;;;21.95;5.85;;;32.20;45.00;;;;;;5093859;28;20039;-69
2022/07/14 07:52:20;;;;;;;28.13;6.15;;;32.30;44.90;;;;;;5093876;28;20058;-68
2022/07/14 07:55:24;;;;;;;23.27;5.05;;;32.50;44.40;;;;;;5094251;28;20055;-68
2022/07/14 07:58:28;;;;;;;9.40;3.95;;;32.60;44.20;;;;;;5093849;28;20047;-68
2022/07/14 08:01:32;;;;;;;11.48;3.70;;;32.70;42.20;;;;;;5093308;28;20039;-67
2022/07/14 08:04:36;;;;;;;101.00;8.88;;;32.70;41.30;;;;;;5093232;28;20055;-69
2022/07/14 08:07:40;;;;;;;25.63;3.80;;;32.70;40.50;;;;;;5093492;28;20403;-66
2022/07/14 08:10:44;;;;;;;7.55;2.22;;;32.90;39.30;;;;;;5093385;28;20050;-67
2022/07/14 08:13:48;;;;;;;21.48;3.58;;;32.40;39.30;;;;;;5092668;28;20047;-72
2022/07/14 08:16:52;;;;;;;8.68;2.28;;;32.40;40.40;;;;;;5081148;28;20047;-68
2022/07/14 08:19:56;;;;;;;6.25;2.58;;;32.60;39.80;;;;;;5093180;28;20047;-69
2022/07/14 08:23:01;;;;;;;4.47;2.35;;;32.50;39.70;;;;;;5093049;28;20055;-67
2022/07/14 08:26:05;;;;;;;10.25;2.50;;;32.10;39.80;;;;;;5093089;28;20043;-66
2022/07/14 08:29:09;;;;;;;11.02;2.33;;;32.30;41.00;;;;;;5093521;28;20482;-68
2022/07/14 08:32:13;;;;;;;7.50;2.33;;;32.40;40.30;;;;;;5093395;28;20197;-67
2022/07/14 08:35:20;;;;;;;5.57;2.10;;;32.40;40.00;;;;;;5091942;28;20047;-68
2022/07/14 08:38:24;;;;;;;5.43;2.30;;;32.50;40.50;;;;;;5091846;28;20039;-67
2022/07/14 08:41:28;;;;;;;9.05;2.20;;;32.30;40.60;;;;;;5092738;28;20059;-67
2022/07/14 08:44:33;;;;;;;6.40;2.28;;;32.50;40.00;;;;;;5092134;28;20394;-69
2022/07/14 08:47:38;;;;;;;6.15;2.50;;;32.40;40.70;;;;;;5092632;28;20043;-67
2022/07/14 08:50:44;;;;;;;8.25;2.30;;;32.60;40.40;;;;;;5092467;28;20055;-67
2022/07/14 08:53:48;;;;;;;3.67;2.25;;;32.80;40.90;;;;;;5092652;28;20200;-68
2022/07/14 08:56:52;;;;;;;3.00;2.30;;;33.00;40.00;;;;;;5092421;28;20060;-66
2022/07/14 08:59:57;;;;;;;7.53;2.70;;;32.80;39.10;;;;;;5091498;28;20417;-68
2022/07/14 09:03:01;;;;;;;4.38;3.08;;;32.70;39.70;;;;;;5092668;28;20059;-68
2022/07/14 09:06:05;;;;;;;6.95;3.03;;;32.70;39.20;;;;;;5092610;28;20055;-67
2022/07/14 09:09:09;;;;;;;7.35;3.85;;;32.70;40.40;;;;;;5092499;28;20062;-69
2022/07/14 09:12:14;;;;;;;4.63;3.72;;;32.90;39.90;;;;;;5092766;28;20051;-69
2022/07/14 09:19:06;;;;;;;11.30;4.43;;;33.20;40.10;;;;;;5092533;28;20043;-68
2022/07/14 09:22:10;;;;;;;7.63;4.55;;;33.20;40.40;;;;;;5091730;28;20055;-68
2022/07/14 09:25:17;;;;;;;10.50;4.78;;;33.20;40.30;;;;;;5091935;28;20051;-70
2022/07/14 09:28:26;;;;;;;10.68;5.88;;;33.20;40.00;;;;;;5091265;28;20039;-68
2022/07/14 09:31:31;;;;;;;7.00;5.43;;;33.10;40.00;;;;;;5092402;28;20051;-70
2022/07/14 09:34:36;;;;;;;4.78;4.20;;;33.10;40.60;;;;;;5092239;28;20047;-71
2022/07/14 09:37:41;;;;;;;6.10;5.18;;;33.00;40.00;;;;;;5092033;28;20051;-68
2022/07/14 09:40:46;;;;;;;7.63;4.93;;;32.70;40.20;;;;;;5091843;28;20388;-68
2022/07/14 09:44:06;;;;;;;7.13;4.65;;;32.70;41.30;;;;;;5091703;28;20529;-69
2022/07/14 09:47:11;;;;;;;;;;;32.70;40.60;;;;;;5091881;28;20376;-73
2022/07/14 09:50:31;;;;;;;13.50;5.35;;;32.70;40.80;;;;;;5091316;28;19923;-71
2022/07/14 09:53:36;;;;;;;6.97;5.68;;;32.90;41.10;;;;;;5090585;28;20054;-70
2022/07/14 09:56:40;;;;;;;11.25;5.53;;;32.90;39.70;;;;;;5091316;28;20035;-69
2022/07/14 09:59:49;;;;;;;8.85;6.68;;;33.00;40.40;;;;;;5090967;28;20054;-70
2022/07/14 10:02:53;;;;;;;11.68;6.90;;;33.20;39.90;;;;;;5091056;28;20634;-69
2022/07/14 10:06:00;;;;;;;10.77;6.60;;;33.40;40.00;;;;;;5091436;28;20047;-71
2022/07/14 10:09:06;;;;;;;8.30;6.18;;;33.70;40.10;;;;;;5091236;28;20039;-69
2022/07/14 10:12:11;;;;;;;10.05;6.05;;;33.90;40.10;;;;;;5091240;28;20498;-69
2022/07/14 10:15:15;;;;;;;12.63;8.65;;;33.90;40.00;;;;;;5091183;28;20039;-69
2022/07/14 10:18:21;;;;;;;14.60;9.27;;;33.80;39.90;;;;;;5091265;28;20039;-69
2022/07/14 10:21:27;;;;;;;12.95;8.57;;;33.60;39.20;;;;;;5091151;28;20046;-68
2022/07/14 10:24:32;;;;;;;15.35;9.00;;;33.50;39.90;;;;;;5091084;28;20059;-68
2022/07/14 10:27:42;;;;;;;11.75;8.05;;;33.50;40.80;;;;;;5090543;28;20097;-69
2022/07/14 10:30:58;;;;;;;10.57;7.47;;;33.60;40.30;;;;;;5091140;28;20048;-68
2022/07/14 10:34:49;;;;;;;12.23;7.22;;;33.60;39.90;;;;;;5091316;28;20059;-69
2022/07/14 10:38:26;;;;;;;6.90;6.20;;;33.60;39.30;;;;;;5090395;28;20039;-69
2022/07/14 10:41:52;;;;;;;7.53;5.93;;;33.60;39.80;;;;;;5091037;28;20039;-68
2022/07/14 10:44:56;;;;;;;11.35;7.22;;;33.70;39.80;;;;;;5090882;28;20070;-69
2022/07/14 10:48:00;;;;;;;8.02;6.85;;;33.60;39.10;;;;;;5090748;28;20047;-68
2022/07/14 10:51:14;;;;;;;9.18;6.15;;;33.70;39.20;;;;;;5089948;28;20059;-69
2022/07/14 10:54:30;;;;;;;7.95;5.85;;;33.40;38.80;;;;;;5090843;28;20047;-69
2022/07/14 10:57:34;;;;;;;6.38;5.05;;;33.20;41.10;;;;;;5090771;28;20047;-68
2022/07/14 11:00:43;;;;;;;7.53;5.57;;;33.10;40.20;;;;;;5091024;28;20039;-69
2022/07/14 11:03:50;;;;;;;9.55;5.50;;;33.20;41.10;;;;;;5090729;28;20042;-69
2022/07/14 11:07:32;;;;;;;14.63;7.75;;;33.20;40.10;;;;;;5090014;28;20036;-69
2022/07/14 11:10:36;;;;;;;10.07;6.47;;;33.10;40.30;;;;;;5090528;28;20495;-68
2022/07/14 11:13:59;;;;;;;8.45;6.03;;;33.00;39.30;;;;;;5090684;28;20039;-69
2022/07/14 11:17:03;;;;;;;10.77;6.50;;;32.80;40.20;;;;;;5090876;28;20043;-68
2022/07/14 11:20:10;;;;;;;8.13;5.90;;;32.90;40.50;;;;;;5090735;28;20039;-69
2022/07/14 11:23:17;;;;;;;6.38;5.78;;;32.90;40.90;;;;;;5090480;28;20047;-68
2022/07/14 11:26:40;;;;;;;7.70;6.60;;;33.00;40.50;;;;;;5090100;28;20047;-68
2022/07/14 11:29:45;;;;;;;7.35;6.72;;;33.00;39.90;;;;;;5090612;28;20043;-68
2022/07/14 11:33:30;;;;;;;8.73;6.38;;;32.90;38.70;;;;;;5089192;28;20510;-68
2022/07/14 11:36:39;;;;;;;7.93;6.10;;;32.90;39.40;;;;;;5084048;28;20049;-68
2022/07/14 11:39:46;;;;;;;11.00;5.68;;;32.90;39.80;;;;;;5088506;28;20062;-70
2022/07/14 11:43:28;;;;;;;10.02;5.75;;;33.00;40.40;;;;;;5088869;28;20047;-68
2022/07/14 11:46:33;;;;;;;6.15;5.55;;;32.90;39.90;;;;;;5092388;28;20051;-68
2022/07/14 11:49:37;;;;;;;6.18;5.57;;;32.90;39.80;;;;;;5092914;28;20047;-69
2022/07/14 11:52:41;;;;;;;6.90;5.75;;;32.90;40.00;;;;;;5094311;28;20105;-68
2022/07/14 11:55:46;;;;;;;10.27;4.97;;;33.00;39.80;;;;;;5094015;28;20047;-68
2022/07/14 11:58:51;;;;;;;4.95;4.20;;;33.00;37.80;;;;;;5092655;28;20043;-69
2022/07/14 12:02:07;;;;;;;4.43;4.10;;;32.90;38.70;;;;;;5093933;28;20050;-68
2022/07/14 12:05:11;;;;;;;4.88;4.28;;;32.90;38.90;;;;;;5093685;28;20549;-68
2022/07/14 12:08:22;;;;;;;4.40;4.00;;;33.00;38.80;;;;;;5093934;28;20039;-68
2022/07/14 12:11:26;;;;;;;5.88;3.65;;;33.00;38.60;;;;;;5093550;28;20086;-68
2022/07/14 12:14:31;;;;;;;6.07;3.67;;;33.10;39.80;;;;;;5093704;28;20043;-67
2022/07/14 12:17:49;;;;;;;4.45;4.00;;;33.10;40.80;;;;;;5093733;28;20047;-67
2022/07/14 12:20:53;;;;;;;3.70;3.40;;;33.10;41.10;;;;;;5093082;28;20043;-68
2022/07/14 12:23:57;;;;;;;7.28;3.92;;;33.20;41.00;;;;;;5093306;28;20051;-68
2022/07/14 12:27:05;;;;;;;9.50;3.58;;;33.20;41.20;;;;;;5093319;28;20043;-67
2022/07/14 12:30:10;;;;;;;8.30;3.25;;;33.30;44.50;;;;;;5093280;28;20043;-67
2022/07/14 12:33:28;;;;;;;7.90;4.03;;;33.20;44.30;;;;;;5093121;28;20047;-67
2022/07/14 12:36:33;;;;;;;8.82;4.28;;;33.50;44.00;;;;;;5093578;28;20043;-67
2022/07/14 12:39:39;;;;;;;11.50;3.83;;;34.50;43.00;;;;;;5093078;28;20043;-68
2022/07/14 12:42:45;;;;;;;16.67;4.10;;;35.60;41.80;;;;;;5093277;28;20043;-67
2022/07/14 12:46:05;;;;;;;11.07;3.60;;;36.30;41.50;;;;;;5093412;28;20059;-68
2022/07/14 12:49:10;;;;;;;6.88;3.53;;;36.20;42.10;;;;;;5091516;28;20050;-67
2022/07/14 12:52:15;;;;;;;8.20;3.80;;;35.70;43.00;;;;;;5091042;28;20459;-69
2022/07/14 12:55:37;;;;;;;5.80;3.92;;;35.20;44.50;;;;;;5090561;28;20043;-68
2022/07/14 12:58:44;;;;;;;12.25;3.42;;;34.70;44.40;;;;;;5090963;28;20043;-67
2022/07/14 13:01:59;;;;;;;14.35;3.10;;;34.40;45.30;;;;;;5091142;28;20407;-68
2022/07/14 13:05:03;;;;;;;4.82;2.53;;;34.20;46.70;;;;;;5092348;28;20071;-69
2022/07/14 13:08:33;;;;;;;4.30;2.60;;;34.00;47.40;;;;;;5092729;28;20043;-68
2022/07/14 13:11:37;;;;;;;7.05;3.15;;;33.90;48.20;;;;;;5092035;28;20035;-69
2022/07/14 13:15:15;;;;;;;13.50;2.75;;;33.80;48.40;;;;;;5092594;28;20396;-69
2022/07/14 13:18:19;;;;;;;6.43;3.40;;;33.70;48.90;;;;;;5092311;28;20050;-67
2022/07/14 13:21:58;;;;;;;6.72;3.20;;;33.60;49.20;;;;;;5092335;28;20051;-68
2022/07/14 13:25:02;;;;;;;6.78;3.20;;;33.60;47.80;;;;;;5092222;28;20051;-68
2022/07/14 13:28:06;;;;;;;5.75;3.00;;;33.50;48.10;;;;;;5092070;28;20189;-69
2022/07/14 13:31:13;;;;;;;11.88;2.90;;;33.50;48.60;;;;;;5092096;28;20053;-68
2022/07/14 13:34:17;;;;;;;10.50;3.03;;;33.40;49.10;;;;;;5092216;28;20043;-68
2022/07/14 13:37:22;;;;;;;4.20;2.50;;;33.40;49.90;;;;;;5092191;28;20051;-69
2022/07/14 13:40:27;;;;;;;6.93;2.85;;;33.30;49.70;;;;;;5091911;28;20051;-69
2022/07/14 13:43:32;;;;;;;6.13;2.75;;;33.30;50.20;;;;;;5092358;28;20047;-68
2022/07/14 13:46:36;;;;;;;4.38;2.65;;;33.30;50.10;;;;;;5091229;28;20044;-68
2022/07/14 13:53:02;;;;;;;14.15;3.40;;;33.30;50.40;;;;;;5091946;28;20380;-69
2022/07/14 13:56:07;;;;;;;7.32;2.15;;;33.20;50.20;;;;;;5090786;28;20054;-68
2022/07/14 13:59:12;;;;;;;8.00;2.80;;;33.20;50.40;;;;;;5091386;28;20047;-68
2022/07/14 14:02:15;;;;;;;5.35;2.47;;;33.20;50.40;;;;;;5091876;28;20047;-69
2022/07/14 14:05:20;;;;;;;7.03;2.45;;;33.20;50.30;;;;;;5091293;28;20050;-68
2022/07/14 14:08:26;;;;;;;4.18;2.47;;;33.20;50.20;;;;;;5091112;28;20047;-68
2022/07/14 14:11:31;;;;;;;4.00;2.15;;;33.20;50.80;;;;;;5091455;28;20043;-68
2022/07/14 14:14:35;;;;;;;7.88;2.05;;;33.10;50.70;;;;;;5091953;28;20039;-69
2022/07/14 14:17:38;;;;;;;5.25;2.22;;;33.10;50.50;;;;;;5091240;28;20063;-67
2022/07/14 14:20:43;;;;;;;4.00;1.95;;;33.10;50.80;;;;;;5091446;28;20379;-69
2022/07/14 14:23:47;;;;;;;8.30;2.47;;;33.10;51.10;;;;;;5091235;28;20395;-68
2022/07/14 14:26:52;;;;;;;3.78;1.92;;;33.00;50.50;;;;;;5091548;28;20050;-69
2022/07/14 14:29:56;;;;;;;9.02;2.63;;;33.00;50.90;;;;;;5090547;28;20043;-68
2022/07/14 14:33:01;;;;;;;6.43;2.13;;;33.00;51.60;;;;;;5091461;28;20051;-68
2022/07/14 14:36:05;;;;;;;6.53;2.13;;;32.90;50.10;;;;;;5090584;28;20490;-68
2022/07/14 14:39:09;;;;;;;8.07;2.60;;;32.90;50.10;;;;;;5091191;28;20046;-69
2022/07/14 14:42:13;;;;;;;3.80;1.90;;;32.90;49.90;;;;;;5091393;28;20502;-67
2022/07/14 14:45:20;;;;;;;10.45;1.80;;;32.80;49.80;;;;;;5090795;28;20063;-68
2022/07/14 14:48:23;;;;;;;6.63;2.30;;;32.80;49.50;;;;;;5091022;28;20051;-66
2022/07/14 14:51:27;;;;;;;4.03;2.60;;;32.70;49.40;;;;;;5090792;28;20059;-66
2022/07/14 14:54:31;;;;;;;10.85;2.03;;;32.70;49.70;;;;;;5089773;28;20055;-67
2022/07/14 14:57:36;;;;;;;10.52;2.03;;;32.60;49.20;;;;;;5091032;28;20043;-66
2022/07/14 15:00:39;;;;;;;6.15;1.85;;;32.60;49.40;;;;;;5090741;28;20071;-66
2022/07/14 15:03:43;;;;;;;4.22;1.88;;;32.50;49.10;;;;;;5090525;28;20051;-66
2022/07/14 15:06:47;;;;;;;8.45;2.03;;;32.50;49.20;;;;;;5091134;28;20052;-66
2022/07/14 15:09:53;;;;;;;7.70;2.55;;;32.50;49.20;;;;;;5090859;28;20055;-67
2022/07/14 15:12:57;;;;;;;8.27;2.28;;;32.50;48.90;;;;;;5090171;28;20047;-67
2022/07/14 15:16:01;;;;;;;11.73;2.90;;;33.30;48.80;;;;;;5090251;28;20058;-66
2022/07/14 15:19:05;;;;;;;6.80;2.55;;;33.80;47.70;;;;;;5090811;28;20058;-68
2022/07/14 15:22:12;;;;;;;5.45;2.13;;;34.80;46.90;;;;;;5094713;28;20063;-65
2022/07/14 15:25:16;;;;;;;8.73;2.30;;;35.00;46.40;;;;;;5093392;28;20126;-68
2022/07/14 15:28:20;;;;;;;8.48;2.13;;;35.60;46.40;;;;;;5094566;28;20035;-68
2022/07/14 15:31:24;;;;;;;4.63;2.20;;;35.90;45.60;;;;;;5082071;28;20123;-66
2022/07/14 15:34:27;;;;;;;15.45;2.30;;;36.40;45.40;;;;;;5094305;28;20050;-66
2022/07/14 15:37:31;;;;;;;3.47;2.20;;;36.70;44.90;;;;;;5093592;28;20039;-65
2022/07/14 15:44:02;;;;;;;6.45;1.98;;;37.00;44.20;;;;;;5093856;28;20039;-67
2022/07/14 15:47:06;;;;;;;5.60;3.20;;;36.80;44.20;;;;;;5093938;28;20079;-67
2022/07/14 15:50:09;;;;;;;7.97;3.42;;;37.00;43.60;;;;;;5094023;28;20055;-67
2022/07/14 15:53:13;;;;;;;6.93;3.20;;;37.10;42.50;;;;;;5094413;28;20042;-67
2022/07/14 15:56:17;;;;;;;5.57;3.28;;;37.20;42.30;;;;;;5093875;28;20043;-65
2022/07/14 15:59:21;;;;;;;9.50;3.92;;;37.40;41.80;;;;;;5092970;28;20047;-66
2022/07/14 16:02:25;;;;;;;10.77;4.25;;;37.30;41.60;;;;;;5093953;28;20043;-66
2022/07/14 16:05:29;;;;;;;7.72;4.60;;;37.20;41.50;;;;;;5093736;28;20058;-67
2022/07/14 16:08:33;;;;;;;13.20;4.95;;;37.20;41.50;;;;;;5093835;28;20051;-67
2022/07/14 16:11:37;;;;;;;23.35;5.22;;;37.10;41.60;;;;;;5093793;28;20391;-69
2022/07/14 16:14:41;;;;;;;15.48;4.50;;;37.20;41.50;;;;;;5093816;28;20047;-68
2022/07/14 16:17:46;;;;;;;15.05;4.65;;;37.10;41.20;;;;;;5093632;28;20051;-68
2022/07/14 16:20:54;;;;;;;11.77;4.03;;;37.10;41.10;;;;;;5093362;28;20039;-66
2022/07/14 16:23:58;;;;;;;8.75;3.70;;;36.80;40.40;;;;;;5092524;28;20043;-68